Cotgrave, United Kingdom
Current Conditions -  °F | °C
As of 3:20 AM on Saturday 01 Nov 2014 (Local Time) from EGNX Reporting Station
Scattered Clouds Scattered Clouds  
Wind Chill: 61°   Ceiling: Unl
Heat Index: 61°   Visibility: 6mi
Dew Point: 55°   Wind: 18mph
Humidity: 82%   Direction: 210°SSW
Pressure: 29.85"   Gusts: NA
Location:  52.91°N, 1.04°W
Report Text: EGNX 010320Z 21016KT 9999 FEW013 SCT026 16/13 Q1011
Loading
Personal Weather Stations






























Interactive Weather Map
Tropical Storm Tracking
New forecast layout! Learn more

10-Day Weather Forecast

Advertisements
Track Severe Weather on mobile